P Hill, Ohio
Current Conditions -  °F | °C
As of 2:35 PM on Thursday 18 Dec 2014 (Local Time) from KVES Reporting Station
Overcast Overcast  
Wind Chill: 21°   Ceiling: 1500
Heat Index: 28°   Visibility: 10mi
Dew Point: 25°   Wind: 7mph
Humidity: 86%   Direction: 270°W
Pressure: 30.2"   Gusts: NA
Location:  40.0465°N, 84.38°W
Report Text: KVES 181935Z AUTO 27006KT 10SM OVC015 M02/M04 A3020 RMK AO2
Loading
Personal Weather Stations






























Interactive Weather Map New forecast layout! Learn more

10-Day Weather Forecast

Advertisements
Track Severe Weather on mobile